Aguas Vermelhas, Brazil
Current Conditions -  °F | °C
As of 4:00 PM on Thursday 23 Oct 2014 (Local Time) from SBQV Reporting Station
Broken Clouds Broken Clouds  
Wind Chill: 70°   Ceiling: 1500
Heat Index: 70°   Visibility: 6mi
Dew Point: 64°   Wind: 13mph
Humidity: 83%   Direction: 110°ESE
Pressure: 30.12"   Gusts: NA
Location:  15.75°S, 41.46°W
Report Text: SBQV 231800Z 11011KT 9999 SCT006 BKN015 21/18 Q1020
Loading
Personal Weather Stations






























Interactive Weather Map
Tropical Storm Tracking
New forecast layout! Learn more

10-Day Weather Forecast

Advertisements
Track Severe Weather on mobile